Glenn C — WDB9635 — position and weather

sailwx.info

Track history (hours):
 
Tides and Currents Weather Stations Pressure Air Temp Water Temp Dewpoint Dewpoint Depression Visibility Wind Speed Wind Dir Waves Ship Positions

Glenn C

Owner: C&C BOATS INC, HUNTINGTON BEACH, CA. More information available from US FCC via Universal Licensing System and Coast Guard Vessel Documentation Center.

Last reported at 2017-Dec-31 20:58 UTC. Time now 2018-Feb-25 10:03 UTC.
Position N 34°18' W 119°34'.
Warning: this ship's position is 55 days out of date.

Length 30 m.

Type: Passenger vessel. MMSI: 366979960.

Date/timePositionNaut miles runAvg speedWind from/ knotsBaromVisibWave heightAir tempDewpointWater temp
2017-Dec-31 20:58N 34°18' W 119°34'713.8
2017-Dec-31 20:28N 34°20' W 119°42'713.3
2017-Dec-31 19:58N 34°22' W 119°50'610.4
2017-Dec-31 19:23N 34°26' W 119°55'3 7.2
2017-Dec-31 19:00N 34°24' W 119°58'714.5
2017-Dec-31 18:29N 34°23' W 120°07'0 0.6
2017-Dec-31 17:55N 34°23' W 120°07'0 0.0
2017-Dec-31 17:28N 34°23' W 120°07'0 0.2
2017-Dec-31 16:58N 34°23' W 120°07'715.3
2017-Dec-31 16:30N 34°24' W 119°58'3 5.5
2017-Dec-31 15:57N 34°26' W 119°55'0 0.0
2017-Dec-31 15:27N 34°26' W 119°55'0 0.0
2017-Dec-31 14:54N 34°26' W 119°55'0 0.0
2017-Dec-31 14:30N 34°26' W 119°55'0 0.4
2017-Dec-31 13:58N 34°26' W 119°55'0 0.1
2017-Dec-31 11:35N 34°26' W 119°55'0 0.0
2017-Dec-31 10:47N 34°26' W 119°55'0 0.0
2017-Dec-31 10:29N 34°26' W 119°55'0 0.0
2017-Dec-31 09:38N 34°26' W 119°55'0 0.0
2017-Dec-31 09:11N 34°26' W 119°55'0 0.0
2017-Dec-31 08:41N 34°26' W 119°55'0 0.0
2017-Dec-31 08:14N 34°26' W 119°55'0 0.0
2017-Dec-31 07:53N 34°26' W 119°55'0 0.0
2017-Dec-31 07:23N 34°26' W 119°55'0 0.0
2017-Dec-31 06:44N 34°26' W 119°55'0 0.0
2017-Dec-31 06:29N 34°26' W 119°55'0 0.0
2017-Dec-31 05:59N 34°26' W 119°55'0 0.0
2017-Dec-31 05:26N 34°26' W 119°55'0 0.0
2017-Dec-31 04:53N 34°26' W 119°55'0 0.0
2017-Dec-31 03:35N 34°26' W 119°55'0 0.0
2017-Dec-31 03:17N 34°26' W 119°55'0 0.0
2017-Dec-31 02:47N 34°26' W 119°55'0 0.0
2017-Dec-31 02:23N 34°26' W 119°55'0 0.0
2017-Dec-31 00:53N 34°26' W 119°55'0 0.0
2017-Dec-31 00:26N 34°26' W 119°55'0 0.0
2017-Dec-30 23:18N 34°26' W 119°55'3 9.2
2017-Dec-30 23:00N 34°24' W 119°58'714.9
2017-Dec-30 22:30N 34°24' W 120°07'5 9.4
2017-Dec-30 22:00N 34°24' W 120°01'5 6.0
2017-Dec-30 21:11N 34°26' W 119°55'0 1.1
2017-Dec-30 21:00N 34°26' W 119°55'0 0.0
2017-Dec-30 20:24N 34°26' W 119°55'0 0.0
2017-Dec-30 19:57N 34°26' W 119°55'0 0.0
2017-Dec-30 19:30N 34°26' W 119°55'0 0.0
2017-Dec-30 18:57N 34°26' W 119°55'0 0.0
2017-Dec-30 18:23N 34°26' W 119°55'4 9.3
2017-Dec-30 17:56N 34°24' W 119°60'612.9
2017-Dec-30 17:28N 34°23' W 120°07'0 0.4
2017-Dec-30 16:59N 34°23' W 120°07'0 0.0
2017-Dec-30 16:20N 34°23' W 120°07'3 8.5
2017-Dec-30 16:00N 34°23' W 120°10'2 2.3
2017-Dec-30 15:17N 34°22' W 120°12'2 6.7
2017-Dec-30 15:00N 34°23' W 120°10'3 4.8
2017-Dec-30 14:28N 34°23' W 120°07'0 0.0
2017-Dec-30 13:55N 34°23' W 120°07'0 0.0
2017-Dec-30 12:40N 34°23' W 120°07'0 0.2
2017-Dec-30 12:25N 34°23' W 120°07'0 0.0
2017-Dec-30 11:52N 34°23' W 120°07'0 0.0
2017-Dec-30 11:28N 34°23' W 120°07'0 0.0
2017-Dec-30 10:58N 34°23' W 120°07'0 0.0
2017-Dec-30 10:28N 34°23' W 120°07'0 0.0
2017-Dec-30 09:52N 34°23' W 120°07'0 0.0
2017-Dec-30 09:19N 34°23' W 120°07'0 0.0
2017-Dec-30 08:58N 34°23' W 120°07'0 0.0
2017-Dec-30 08:28N 34°23' W 120°07'0 0.0
2017-Dec-30 07:55N 34°23' W 120°07'0 0.0
2017-Dec-30 07:04N 34°23' W 120°07'0 0.1
2017-Dec-30 06:55N 34°23' W 120°07'0 0.0
2017-Dec-30 06:07N 34°23' W 120°07'0 0.0
2017-Dec-30 05:46N 34°23' W 120°07'0 0.0
2017-Dec-30 04:01N 34°23' W 120°07'0 0.0
2017-Dec-30 03:40N 34°23' W 120°07'0 0.0
2017-Dec-30 03:19N 34°23' W 120°07'0 0.0
2017-Dec-30 02:52N 34°23' W 120°07'0 0.0
2017-Dec-30 01:52N 34°23' W 120°07'0 0.0
2017-Dec-30 01:28N 34°23' W 120°07'0 0.0
2017-Dec-30 00:49N 34°23' W 120°07'3 6.1
2017-Dec-30 00:18N 34°23' W 120°11'513.5
2017-Dec-29 23:55N 34°21' W 120°17'4 9.9
2017-Dec-29 23:29N 34°22' W 120°12'2 3.5
2017-Dec-29 23:00N 34°22' W 120°10'0 0.0
2017-Dec-29 22:09N 34°22' W 120°10'0 0.0
2017-Dec-29 21:59N 34°22' W 120°10'0 0.0
2017-Dec-29 21:29N 34°22' W 120°10'0 0.0
2017-Dec-29 20:59N 34°22' W 120°10'0 0.0
2017-Dec-29 20:29N 34°23' W 120°10'0 0.0
2017-Dec-29 19:47N 34°23' W 120°10'0 0.0
2017-Dec-29 19:11N 34°23' W 120°10'0 0.0
2017-Dec-29 18:56N 34°23' W 120°10'0 0.0
2017-Dec-29 18:29N 34°23' W 120°10'0 0.0
2017-Dec-29 17:17N 34°23' W 120°10'0 0.0
2017-Dec-29 16:56N 34°23' W 120°10'0 0.1
2017-Dec-29 16:19N 34°23' W 120°10'5 9.1
2017-Dec-29 15:45N 34°21' W 120°16'1 2.5
2017-Dec-29 15:30N 34°21' W 120°17'712.8
2017-Dec-29 14:59N 34°23' W 120°09'2 3.3
2017-Dec-29 14:28N 34°23' W 120°07'0 0.1
2017-Dec-29 13:58N 34°23' W 120°07'0 0.1
2017-Dec-29 13:22N 34°23' W 120°07'0 0.0
2017-Dec-29 12:58N 34°23' W 120°07'0 0.0
2017-Dec-29 12:28N 34°23' W 120°07'0 0.0
2017-Dec-29 11:58N 34°23' W 120°07'0 0.0
2017-Dec-29 11:16N 34°23' W 120°07'0 0.0
2017-Dec-29 10:22N 34°23' W 120°07'0 0.1
2017-Dec-29 09:34N 34°23' W 120°07'0 0.0
2017-Dec-29 09:19N 34°23' W 120°07'0 0.0
2017-Dec-29 08:34N 34°23' W 120°07'0 0.0
2017-Dec-29 08:04N 34°23' W 120°07'0 0.0
2017-Dec-29 07:58N 34°23' W 120°07'0 0.0
2017-Dec-29 07:28N 34°23' W 120°07'0 0.0
2017-Dec-29 06:58N 34°23' W 120°07'0 0.0
2017-Dec-29 06:25N 34°23' W 120°07'0 0.0
2017-Dec-29 03:28N 34°23' W 120°07'0 0.0
2017-Dec-29 02:46N 34°23' W 120°07'0 0.0
2017-Dec-29 01:37N 34°23' W 120°07'0 0.0
2017-Dec-29 00:37N 34°23' W 120°07'0 0.0
2017-Dec-29 00:28N 34°23' W 120°07'0 0.0
2017-Dec-28 23:58N 34°23' W 120°07'0 0.0
2017-Dec-28 22:49N 34°23' W 120°07'2 7.2
2017-Dec-28 22:30N 34°24' W 120°04'713.5
2017-Dec-28 21:57N 34°25' W 119°56'0 0.9
2017-Dec-28 21:24N 34°26' W 119°55'0 0.0
2017-Dec-28 20:51N 34°26' W 119°55'0 0.0
2017-Dec-28 20:30N 34°26' W 119°55'0 0.1
2017-Dec-28 19:36N 34°26' W 119°55'0 0.1
2017-Dec-28 19:06N 34°26' W 119°55'0 0.0
2017-Dec-28 18:03N 34°26' W 119°55'0 0.1
2017-Dec-28 17:59N 34°26' W 119°55'0 0.5
2017-Dec-28 17:30N 34°26' W 119°55'610.3
2017-Dec-28 16:56N 34°23' W 120°02'714.7
2017-Dec-28 16:26N 34°22' W 120°10'511.5
2017-Dec-28 15:58N 34°21' W 120°17'4 8.3
2017-Dec-28 15:30N 34°22' W 120°12'4 7.2
2017-Dec-28 14:54N 34°23' W 120°07'0 0.4
2017-Dec-28 14:30N 34°23' W 120°07'0 0.0
2017-Dec-28 13:57N 34°23' W 120°07'0 0.0
2017-Dec-28 13:28N 34°23' W 120°07'0 0.0
2017-Dec-28 12:58N 34°23' W 120°07'0 0.0
2017-Dec-28 12:01N 34°23' W 120°07'0 0.0
2017-Dec-28 11:58N 34°23' W 120°07'0 0.0
2017-Dec-28 11:28N 34°23' W 120°07'0 0.0
2017-Dec-28 10:58N 34°23' W 120°07'0 0.0
2017-Dec-28 10:28N 34°23' W 120°07'0 0.0
2017-Dec-28 09:58N 34°23' W 120°07'0 0.0
2017-Dec-28 09:13N 34°23' W 120°07'0 0.0
2017-Dec-28 08:58N 34°23' W 120°07'0 0.0
2017-Dec-28 08:07N 34°23' W 120°07'0 0.0
2017-Dec-28 07:52N 34°23' W 120°07'0 0.0
2017-Dec-28 07:01N 34°23' W 120°07'0 0.0
2017-Dec-28 06:58N 34°23' W 120°07'0 0.0
2017-Dec-28 06:22N 34°23' W 120°07'0 0.0
2017-Dec-28 05:55N 34°23' W 120°07'0 0.0
2017-Dec-28 04:25N 34°23' W 120°07'0 0.0
2017-Dec-28 03:40N 34°23' W 120°07'0 0.1
2017-Dec-28 03:28N 34°23' W 120°07'0 0.0
2017-Dec-28 02:58N 34°23' W 120°07'0 0.1
2017-Dec-28 02:28N 34°23' W 120°07'0 0.0
2017-Dec-28 01:55N 34°23' W 120°07'0 0.0
2017-Dec-28 01:28N 34°23' W 120°07'0 0.0
2017-Dec-28 00:55N 34°23' W 120°07'0 0.0
2017-Dec-28 00:28N 34°23' W 120°07'0 0.0
2017-Dec-27 23:58N 34°23' W 120°07'0 0.0
2017-Dec-27 23:28N 34°23' W 120°07'0 0.0
2017-Dec-27 22:58N 34°23' W 120°07'0 0.4
2017-Dec-27 22:30N 34°23' W 120°07'813.5
2017-Dec-27 21:54N 34°24' W 119°57'2 4.1
2017-Dec-27 21:18N 34°23' W 120°00'515.1
2017-Dec-27 20:59N 34°23' W 120°06'814.6
2017-Dec-27 20:25N 34°21' W 120°16'1 1.5
2017-Dec-27 19:54N 34°21' W 120°17'613.5
2017-Dec-27 19:29N 34°23' W 120°10'3 4.0
2017-Dec-27 18:47N 34°23' W 120°07'0 0.1
2017-Dec-27 18:30N 34°23' W 120°07'814.1
2017-Dec-27 17:57N 34°24' W 119°58'0 0.4
2017-Dec-27 17:27N 34°24' W 119°58'714.8
2017-Dec-27 17:00N 34°24' W 120°06'1 2.3
2017-Dec-27 16:22N 34°23' W 120°07'512.7
2017-Dec-27 15:57N 34°24' W 120°01'5 8.9
2017-Dec-27 15:24N 34°26' W 119°55'0 0.0
2017-Dec-27 14:57N 34°26' W 119°55'0 0.5
2017-Dec-27 14:28N 34°26' W 119°55'0 0.4
2017-Dec-27 13:56N 34°26' W 119°55'2 5.8
2017-Dec-27 13:30N 34°25' W 119°58'713.7
2017-Dec-27 12:58N 34°24' W 120°07'0 0.7
2017-Dec-27 12:30N 34°23' W 120°07'0 0.0
2017-Dec-27 11:47N 34°23' W 120°07'0 0.0
2017-Dec-27 11:23N 34°23' W 120°07'0 0.0
2017-Dec-27 10:56N 34°23' W 120°07'0 0.0
2017-Dec-27 10:11N 34°23' W 120°07'0 0.0
2017-Dec-27 10:00N 34°23' W 120°07'0 0.0
2017-Dec-27 09:29N 34°23' W 120°07'0 0.0
2017-Dec-27 08:59N 34°23' W 120°07'0 0.0
2017-Dec-27 08:23N 34°23' W 120°07'0 0.0
2017-Dec-27 07:59N 34°23' W 120°07'0 0.0
2017-Dec-27 07:26N 34°23' W 120°07'0 0.0
2017-Dec-27 07:00N 34°23' W 120°07'0 0.0
2017-Dec-27 06:26N 34°23' W 120°07'0 0.0
2017-Dec-27 05:50N 34°23' W 120°07'0 0.0
2017-Dec-27 05:30N 34°23' W 120°07'0 0.0
2017-Dec-27 05:00N 34°23' W 120°07'0 0.0
2017-Dec-27 04:18N 34°23' W 120°07'0 0.0
2017-Dec-27 03:52N 34°23' W 120°07'0 0.0
2017-Dec-27 03:21N 34°23' W 120°07'0 0.0
2017-Dec-27 02:38N 34°23' W 120°07'0 0.0
2017-Dec-27 02:11N 34°23' W 120°07'0 0.1
2017-Dec-27 02:00N 34°23' W 120°07'5 9.2
2017-Dec-27 01:30N 34°24' W 120°01'510.6
2017-Dec-27 01:00N 34°26' W 119°55'611.8
2017-Dec-27 00:30N 34°24' W 120°02'4 8.2
2017-Dec-26 23:59N 34°23' W 120°07'0 0.2
2017-Dec-26 23:10N 34°23' W 120°07'0 0.1
2017-Dec-26 22:55N 34°23' W 120°07'0 0.0
2017-Dec-26 22:25N 34°23' W 120°07'0 0.1
2017-Dec-26 21:19N 34°23' W 120°07'0 0.0
2017-Dec-26 20:59N 34°23' W 120°07'0 0.3
2017-Dec-26 20:29N 34°23' W 120°07'612.6
2017-Dec-26 19:58N 34°24' W 119°60'4 7.8
2017-Dec-26 19:29N 34°26' W 119°55'0 0.0
2017-Dec-26 18:59N 34°26' W 119°55'0 0.0
2017-Dec-26 18:17N 34°26' W 119°55'0 0.0
2017-Dec-26 17:59N 34°26' W 119°55'0 0.2
2017-Dec-26 17:30N 34°26' W 119°55'510.9
2017-Dec-26 17:00N 34°23' W 120°01'510.8
2017-Dec-26 16:30N 34°23' W 120°08'2 3.7
2017-Dec-26 16:00N 34°22' W 120°10'2 3.1
2017-Dec-26 15:24N 34°23' W 120°08'614.3
2017-Dec-26 15:00N 34°24' W 120°01'5 6.5
2017-Dec-26 14:15N 34°26' W 119°55'0 0.0
2017-Dec-26 13:50N 34°26' W 119°55'0 0.5
2017-Dec-26 13:23N 34°26' W 119°55'0 0.4
2017-Dec-26 12:51N 34°26' W 119°55'0 0.0
2017-Dec-26 12:15N 34°26' W 119°55'0 0.0
2017-Dec-26 11:57N 34°26' W 119°55'0 0.0
2017-Dec-26 11:27N 34°26' W 119°55'0 0.0
2017-Dec-26 10:57N 34°26' W 119°55'0 0.0
2017-Dec-26 09:33N 34°26' W 119°55'0 0.0
2017-Dec-26 09:24N 34°26' W 119°55'0 0.0
2017-Dec-26 09:00N 34°26' W 119°55'0 0.0
2017-Dec-26 08:30N 34°26' W 119°55'0 0.0
2017-Dec-26 07:03N 34°26' W 119°55'0 0.0
2017-Dec-26 06:39N 34°26' W 119°55'0 0.0
2017-Dec-26 06:30N 34°26' W 119°55'0 0.0
2017-Dec-26 05:57N 34°26' W 119°55'0 0.0
2017-Dec-26 04:33N 34°26' W 119°55'0 0.0
2017-Dec-26 04:30N 34°26' W 119°55'0 0.0
2017-Dec-26 03:21N 34°26' W 119°55'0 0.0
2017-Dec-26 02:57N 34°26' W 119°55'0 0.0
2017-Dec-26 02:21N 34°26' W 119°55'0 0.0
2017-Dec-26 02:00N 34°26' W 119°55'4 8.8
2017-Dec-26 01:30N 34°24' W 120°00'611.4
2017-Dec-26 00:59N 34°23' W 120°07'0 0.3
2017-Dec-26 00:21N 34°23' W 120°07'0 0.0
2017-Dec-25 23:57N 34°23' W 120°07'0 0.0
2017-Dec-25 23:30N 34°23' W 120°07'0 0.0
2017-Dec-25 23:00N 34°23' W 120°07'0 0.0
2017-Dec-25 22:24N 34°23' W 120°07'0 0.1
2017-Dec-25 21:51N 34°23' W 120°07'0 0.1
2017-Dec-25 21:27N 34°23' W 120°07'0 0.1
2017-Dec-25 21:00N 34°23' W 120°07'0 0.0
2017-Dec-25 20:30N 34°23' W 120°07'0 0.0
2017-Dec-25 20:00N 34°23' W 120°07'0 0.0
2017-Dec-25 19:30N 34°23' W 120°07'0 0.0
2017-Dec-25 18:57N 34°23' W 120°07'5 9.6
2017-Dec-25 18:29N 34°22' W 120°12'1 2.5
2017-Dec-25 18:00N 34°22' W 120°14'610.9
2017-Dec-25 17:29N 34°23' W 120°07'0 0.0
2017-Dec-25 16:59N 34°23' W 120°07'0 0.0
2017-Dec-25 16:29N 34°23' W 120°07'0 0.0
2017-Dec-25 15:56N 34°23' W 120°07'0 0.0
2017-Dec-25 15:28N 34°23' W 120°07'0 0.0
2017-Dec-25 14:48N 34°23' W 120°07'0 0.1
2017-Dec-25 14:24N 34°23' W 120°07'0 0.0
2017-Dec-25 14:00N 34°23' W 120°07'0 0.0
2017-Dec-25 13:27N 34°23' W 120°07'0 0.0
2017-Dec-25 13:00N 34°23' W 120°07'0 0.0
2017-Dec-25 12:27N 34°23' W 120°07'0 0.0
2017-Dec-25 11:51N 34°23' W 120°07'0 0.0
2017-Dec-25 11:30N 34°23' W 120°07'0 0.1
2017-Dec-25 11:00N 34°23' W 120°07'0 0.0
2017-Dec-25 10:27N 34°23' W 120°07'0 0.0
2017-Dec-25 10:00N 34°23' W 120°07'0 0.0
2017-Dec-25 09:27N 34°23' W 120°07'0 0.0
2017-Dec-25 08:57N 34°23' W 120°07'0 0.0
2017-Dec-25 08:30N 34°23' W 120°07'0 0.0
2017-Dec-25 05:43N 34°23' W 120°07'0 0.0
2017-Dec-24 19:42N 34°23' W 120°07'313.0
2017-Dec-24 19:27N 34°24' W 120°03'713.7
2017-Dec-24 18:58N 34°26' W 119°55'10 1.5
2017-Dec-24 12:20N 34°23' W 120°07'0 0.0
2017-Dec-24 11:59N 34°23' W 120°07'0 0.1
2017-Dec-24 11:26N 34°23' W 120°07'0 0.0
2017-Dec-24 10:59N 34°23' W 120°07'0 0.0
2017-Dec-24 10:20N 34°23' W 120°07'0 0.0
2017-Dec-24 09:56N 34°23' W 120°07'0 0.0
2017-Dec-24 09:23N 34°23' W 120°07'0 0.0
2017-Dec-24 08:57N 34°23' W 120°07'0 0.0
2017-Dec-24 08:27N 34°23' W 120°07'0 0.0
2017-Dec-24 08:00N 34°23' W 120°07'0 0.0
2017-Dec-24 07:30N 34°23' W 120°07'0 0.0
2017-Dec-24 06:58N 34°23' W 120°07'0 0.0
2017-Dec-24 06:22N 34°23' W 120°07'0 0.0
2017-Dec-24 05:59N 34°23' W 120°07'0 0.0
2017-Dec-24 05:23N 34°23' W 120°07'0 0.0
2017-Dec-24 04:59N 34°23' W 120°07'0 0.0
2017-Dec-24 04:30N 34°23' W 120°07'0 0.0
2017-Dec-24 04:00N 34°23' W 120°07'0 0.1
2017-Dec-24 03:27N 34°23' W 120°07'0 0.0
2017-Dec-24 02:50N 34°23' W 120°07'0 0.1
2017-Dec-24 02:29N 34°23' W 120°07'2 4.2
2017-Dec-24 01:59N 34°23' W 120°10'0 0.9
2017-Dec-24 01:29N 34°22' W 120°10'2 4.6
2017-Dec-24 01:00N 34°23' W 120°07'2 3.9
2017-Dec-24 00:25N 34°23' W 120°10'0 0.1
2017-Dec-23 23:51N 34°22' W 120°10'0 0.0
2017-Dec-23 23:29N 34°22' W 120°10'0 0.1
2017-Dec-23 22:58N 34°22' W 120°10'0 0.0
2017-Dec-23 22:13N 34°22' W 120°10'0 0.0
2017-Dec-23 21:57N 34°22' W 120°10'0 0.1
2017-Dec-23 21:16N 34°23' W 120°10'0 0.0
2017-Dec-23 20:13N 34°23' W 120°10'0 0.0
2017-Dec-23 19:52N 34°22' W 120°10'0 0.0
2017-Dec-23 19:10N 34°23' W 120°10'0 0.0
2017-Dec-23 18:40N 34°22' W 120°10'0 0.0
2017-Dec-23 18:28N 34°22' W 120°10'0 0.0
2017-Dec-23 17:52N 34°22' W 120°10'0 0.0
2017-Dec-23 17:25N 34°22' W 120°10'0 0.0
2017-Dec-23 16:55N 34°22' W 120°10'0 0.0
2017-Dec-23 16:30N 34°22' W 120°10'612.9
2017-Dec-23 16:00N 34°26' W 120°03'611.0
2017-Dec-23 15:30N 34°24' W 119°57'2 3.5
2017-Dec-23 14:52N 34°26' W 119°55'0 0.0
2017-Dec-23 12:19N 34°26' W 119°55'0 0.0
2017-Dec-23 10:07N 34°26' W 119°55'0 0.1
2017-Dec-23 09:37N 34°26' W 119°55'0 0.0
2017-Dec-23 07:55N 34°26' W 119°55'0 0.0
2017-Dec-23 04:28N 34°26' W 119°55'0 0.0
2017-Dec-23 02:25N 34°26' W 119°55'0 0.6
2017-Dec-23 01:57N 34°26' W 119°56'913.9
2017-Dec-23 01:17N 34°24' W 120°07'1 4.4
2017-Dec-23 01:00N 34°23' W 120°08'712.7
2017-Dec-23 00:26N 34°21' W 120°17'6 5.2
2017-Dec-22 23:20N 34°23' W 120°10'0 0.0
2017-Dec-22 22:56N 34°23' W 120°10'0 0.0
2017-Dec-22 21:50N 34°23' W 120°10'0 0.0
2017-Dec-22 21:26N 34°23' W 120°10'0 0.0
2017-Dec-22 20:32N 34°22' W 120°10'0 0.0
2017-Dec-22 20:23N 34°22' W 120°10'0 0.0
2017-Dec-22 19:56N 34°22' W 120°10'0 0.0
2017-Dec-22 19:14N 34°22' W 120°10'0 0.0
2017-Dec-22 17:45N 34°22' W 120°10'2 9.6
2017-Dec-22 17:30N 34°23' W 120°07'0 0.8
2017-Dec-22 16:59N 34°23' W 120°08'6 9.6
2017-Dec-22 16:23N 34°21' W 120°14'2 5.1
2017-Dec-22 15:59N 34°21' W 120°17'6 9.5
2017-Dec-22 15:23N 34°23' W 120°10'2 4.6
2017-Dec-22 15:00N 34°23' W 120°08'1 1.6
2017-Dec-22 14:24N 34°23' W 120°07'0 0.0
2017-Dec-22 13:54N 34°23' W 120°07'0 0.0
2017-Dec-22 13:27N 34°23' W 120°07'0 0.0
2017-Dec-22 13:00N 34°23' W 120°07'0 0.1
2017-Dec-22 12:24N 34°23' W 120°07'0 0.0
2017-Dec-22 11:58N 34°23' W 120°07'0 0.0
2017-Dec-22 11:28N 34°23' W 120°07'0 0.0
2017-Dec-22 10:58N 34°23' W 120°07'0 0.1
2017-Dec-22 10:28N 34°23' W 120°07'0 0.0
2017-Dec-22 09:55N 34°23' W 120°07'0 0.0
2017-Dec-22 09:28N 34°23' W 120°07'0 0.1
2017-Dec-22 08:58N 34°23' W 120°07'0 0.1
2017-Dec-22 08:28N 34°23' W 120°07'0 0.0
2017-Dec-22 07:58N 34°23' W 120°07'0 0.0
2017-Dec-22 06:28N 34°23' W 120°07'0 0.1
2017-Dec-22 05:58N 34°23' W 120°07'0 0.1
2017-Dec-22 05:10N 34°23' W 120°07'0 0.2
2017-Dec-22 04:58N 34°23' W 120°07'0 0.0
2017-Dec-22 04:28N 34°23' W 120°07'0 0.0
2017-Dec-22 03:58N 34°23' W 120°07'0 0.1
2017-Dec-22 03:28N 34°23' W 120°07'0 0.1
2017-Dec-22 02:52N 34°23' W 120°07'0 0.0
2017-Dec-22 02:28N 34°23' W 120°07'0 0.0
2017-Dec-22 01:59N 34°23' W 120°07'0 0.0
2017-Dec-22 01:30N 34°23' W 120°07'0 0.0
2017-Dec-22 01:00N 34°23' W 120°07'10 7.2
2017-Dec-21 23:37N 34°26' W 119°55'0 0.0
2017-Dec-21 23:22N 34°26' W 119°55'0 0.0
2017-Dec-21 22:56N 34°26' W 119°55'0 0.0
2017-Dec-21 21:45N 34°26' W 119°55'0 0.0
2017-Dec-21 21:12N 34°26' W 119°55'  
Track history (hours):
 
Tides and Currents Weather Stations Pressure Air Temp Water Temp Dewpoint Dewpoint Depression Visibility Wind Speed Wind Dir Waves Ship Positions

Glenn C

Owner: C&C BOATS INC, HUNTINGTON BEACH, CA. More information available from US FCC via Universal Licensing System and Coast Guard Vessel Documentation Center.

Last reported at 2017-Dec-31 20:58 UTC. Time now 2018-Feb-25 10:03 UTC.
Position N 34°18' W 119°34'.
Warning: this ship's position is 55 days out of date.

Length 30 m.

Type: Passenger vessel. MMSI: 366979960.

Date/timePositionNaut miles runAvg speedWind from/ knotsBaromVisibWave heightAir tempDewpointWater temp
2017-Dec-31 20:58N 34°18' W 119°34'713.8
2017-Dec-31 20:28N 34°20' W 119°42'713.3
2017-Dec-31 19:58N 34°22' W 119°50'610.4
2017-Dec-31 19:23N 34°26' W 119°55'3 7.2
2017-Dec-31 19:00N 34°24' W 119°58'714.5
2017-Dec-31 18:29N 34°23' W 120°07'0 0.6
2017-Dec-31 17:55N 34°23' W 120°07'0 0.0
2017-Dec-31 17:28N 34°23' W 120°07'0 0.2
2017-Dec-31 16:58N 34°23' W 120°07'715.3
2017-Dec-31 16:30N 34°24' W 119°58'3 5.5
2017-Dec-31 15:57N 34°26' W 119°55'0 0.0
2017-Dec-31 15:27N 34°26' W 119°55'0 0.0
2017-Dec-31 14:54N 34°26' W 119°55'0 0.0
2017-Dec-31 14:30N 34°26' W 119°55'0 0.4
2017-Dec-31 13:58N 34°26' W 119°55'0 0.1
2017-Dec-31 11:35N 34°26' W 119°55'0 0.0
2017-Dec-31 10:47N 34°26' W 119°55'0 0.0
2017-Dec-31 10:29N 34°26' W 119°55'0 0.0
2017-Dec-31 09:38N 34°26' W 119°55'0 0.0
2017-Dec-31 09:11N 34°26' W 119°55'0 0.0
2017-Dec-31 08:41N 34°26' W 119°55'0 0.0
2017-Dec-31 08:14N 34°26' W 119°55'0 0.0
2017-Dec-31 07:53N 34°26' W 119°55'0 0.0
2017-Dec-31 07:23N 34°26' W 119°55'0 0.0
2017-Dec-31 06:44N 34°26' W 119°55'0 0.0
2017-Dec-31 06:29N 34°26' W 119°55'0 0.0
2017-Dec-31 05:59N 34°26' W 119°55'0 0.0
2017-Dec-31 05:26N 34°26' W 119°55'0 0.0
2017-Dec-31 04:53N 34°26' W 119°55'0 0.0
2017-Dec-31 03:35N 34°26' W 119°55'0 0.0
2017-Dec-31 03:17N 34°26' W 119°55'0 0.0
2017-Dec-31 02:47N 34°26' W 119°55'0 0.0
2017-Dec-31 02:23N 34°26' W 119°55'0 0.0
2017-Dec-31 00:53N 34°26' W 119°55'0 0.0
2017-Dec-31 00:26N 34°26' W 119°55'0 0.0
2017-Dec-30 23:18N 34°26' W 119°55'3 9.2
2017-Dec-30 23:00N 34°24' W 119°58'714.9
2017-Dec-30 22:30N 34°24' W 120°07'5 9.4
2017-Dec-30 22:00N 34°24' W 120°01'5 6.0
2017-Dec-30 21:11N 34°26' W 119°55'0 1.1
2017-Dec-30 21:00N 34°26' W 119°55'0 0.0
2017-Dec-30 20:24N 34°26' W 119°55'0 0.0
2017-Dec-30 19:57N 34°26' W 119°55'0 0.0
2017-Dec-30 19:30N 34°26' W 119°55'0 0.0
2017-Dec-30 18:57N 34°26' W 119°55'0 0.0
2017-Dec-30 18:23N 34°26' W 119°55'4 9.3
2017-Dec-30 17:56N 34°24' W 119°60'612.9
2017-Dec-30 17:28N 34°23' W 120°07'0 0.4
2017-Dec-30 16:59N 34°23' W 120°07'0 0.0
2017-Dec-30 16:20N 34°23' W 120°07'3 8.5
2017-Dec-30 16:00N 34°23' W 120°10'2 2.3
2017-Dec-30 15:17N 34°22' W 120°12'2 6.7
2017-Dec-30 15:00N 34°23' W 120°10'3 4.8
2017-Dec-30 14:28N 34°23' W 120°07'0 0.0
2017-Dec-30 13:55N 34°23' W 120°07'0 0.0
2017-Dec-30 12:40N 34°23' W 120°07'0 0.2
2017-Dec-30 12:25N 34°23' W 120°07'0 0.0
2017-Dec-30 11:52N 34°23' W 120°07'0 0.0
2017-Dec-30 11:28N 34°23' W 120°07'0 0.0
2017-Dec-30 10:58N 34°23' W 120°07'0 0.0
2017-Dec-30 10:28N 34°23' W 120°07'0 0.0
2017-Dec-30 09:52N 34°23' W 120°07'0 0.0
2017-Dec-30 09:19N 34°23' W 120°07'0 0.0
2017-Dec-30 08:58N 34°23' W 120°07'0 0.0
2017-Dec-30 08:28N 34°23' W 120°07'0 0.0
2017-Dec-30 07:55N 34°23' W 120°07'0 0.0
2017-Dec-30 07:04N 34°23' W 120°07'0 0.1
2017-Dec-30 06:55N 34°23' W 120°07'0 0.0
2017-Dec-30 06:07N 34°23' W 120°07'0 0.0
2017-Dec-30 05:46N 34°23' W 120°07'0 0.0
2017-Dec-30 04:01N 34°23' W 120°07'0 0.0
2017-Dec-30 03:40N 34°23' W 120°07'0 0.0
2017-Dec-30 03:19N 34°23' W 120°07'0 0.0
2017-Dec-30 02:52N 34°23' W 120°07'0 0.0
2017-Dec-30 01:52N 34°23' W 120°07'0 0.0
2017-Dec-30 01:28N 34°23' W 120°07'0 0.0
2017-Dec-30 00:49N 34°23' W 120°07'3 6.1
2017-Dec-30 00:18N 34°23' W 120°11'513.5
2017-Dec-29 23:55N 34°21' W 120°17'4 9.9
2017-Dec-29 23:29N 34°22' W 120°12'2 3.5
2017-Dec-29 23:00N 34°22' W 120°10'0 0.0
2017-Dec-29 22:09N 34°22' W 120°10'0 0.0
2017-Dec-29 21:59N 34°22' W 120°10'0 0.0
2017-Dec-29 21:29N 34°22' W 120°10'0 0.0
2017-Dec-29 20:59N 34°22' W 120°10'0 0.0
2017-Dec-29 20:29N 34°23' W 120°10'0 0.0
2017-Dec-29 19:47N 34°23' W 120°10'0 0.0
2017-Dec-29 19:11N 34°23' W 120°10'0 0.0
2017-Dec-29 18:56N 34°23' W 120°10'0 0.0
2017-Dec-29 18:29N 34°23' W 120°10'0 0.0
2017-Dec-29 17:17N 34°23' W 120°10'0 0.0
2017-Dec-29 16:56N 34°23' W 120°10'0 0.1
2017-Dec-29 16:19N 34°23' W 120°10'5 9.1
2017-Dec-29 15:45N 34°21' W 120°16'1 2.5
2017-Dec-29 15:30N 34°21' W 120°17'712.8
2017-Dec-29 14:59N 34°23' W 120°09'2 3.3
2017-Dec-29 14:28N 34°23' W 120°07'0 0.1
2017-Dec-29 13:58N 34°23' W 120°07'0 0.1
2017-Dec-29 13:22N 34°23' W 120°07'0 0.0
2017-Dec-29 12:58N 34°23' W 120°07'0 0.0
2017-Dec-29 12:28N 34°23' W 120°07'0 0.0
2017-Dec-29 11:58N 34°23' W 120°07'0 0.0
2017-Dec-29 11:16N 34°23' W 120°07'0 0.0
2017-Dec-29 10:22N 34°23' W 120°07'0 0.1
2017-Dec-29 09:34N 34°23' W 120°07'0 0.0
2017-Dec-29 09:19N 34°23' W 120°07'0 0.0
2017-Dec-29 08:34N 34°23' W 120°07'0 0.0
2017-Dec-29 08:04N 34°23' W 120°07'0 0.0
2017-Dec-29 07:58N 34°23' W 120°07'0 0.0
2017-Dec-29 07:28N 34°23' W 120°07'0 0.0
2017-Dec-29 06:58N 34°23' W 120°07'0 0.0
2017-Dec-29 06:25N 34°23' W 120°07'0 0.0
2017-Dec-29 03:28N 34°23' W 120°07'0 0.0
2017-Dec-29 02:46N 34°23' W 120°07'0 0.0
2017-Dec-29 01:37N 34°23' W 120°07'0 0.0
2017-Dec-29 00:37N 34°23' W 120°07'0 0.0
2017-Dec-29 00:28N 34°23' W 120°07'0 0.0
2017-Dec-28 23:58N 34°23' W 120°07'0 0.0
2017-Dec-28 22:49N 34°23' W 120°07'2 7.2
2017-Dec-28 22:30N 34°24' W 120°04'713.5
2017-Dec-28 21:57N 34°25' W 119°56'0 0.9
2017-Dec-28 21:24N 34°26' W 119°55'0 0.0
2017-Dec-28 20:51N 34°26' W 119°55'0 0.0
2017-Dec-28 20:30N 34°26' W 119°55'0 0.1
2017-Dec-28 19:36N 34°26' W 119°55'0 0.1
2017-Dec-28 19:06N 34°26' W 119°55'0 0.0
2017-Dec-28 18:03N 34°26' W 119°55'0 0.1
2017-Dec-28 17:59N 34°26' W 119°55'0 0.5
2017-Dec-28 17:30N 34°26' W 119°55'610.3
2017-Dec-28 16:56N 34°23' W 120°02'714.7
2017-Dec-28 16:26N 34°22' W 120°10'511.5
2017-Dec-28 15:58N 34°21' W 120°17'4 8.3
2017-Dec-28 15:30N 34°22' W 120°12'4 7.2
2017-Dec-28 14:54N 34°23' W 120°07'0 0.4
2017-Dec-28 14:30N 34°23' W 120°07'0 0.0
2017-Dec-28 13:57N 34°23' W 120°07'0 0.0
2017-Dec-28 13:28N 34°23' W 120°07'0 0.0
2017-Dec-28 12:58N 34°23' W 120°07'0 0.0
2017-Dec-28 12:01N 34°23' W 120°07'0 0.0
2017-Dec-28 11:58N 34°23' W 120°07'0 0.0
2017-Dec-28 11:28N 34°23' W 120°07'0 0.0
2017-Dec-28 10:58N 34°23' W 120°07'0 0.0
2017-Dec-28 10:28N 34°23' W 120°07'0 0.0
2017-Dec-28 09:58N 34°23' W 120°07'0 0.0
2017-Dec-28 09:13N 34°23' W 120°07'0 0.0
2017-Dec-28 08:58N 34°23' W 120°07'0 0.0
2017-Dec-28 08:07N 34°23' W 120°07'0 0.0
2017-Dec-28 07:52N 34°23' W 120°07'0 0.0
2017-Dec-28 07:01N 34°23' W 120°07'0 0.0
2017-Dec-28 06:58N 34°23' W 120°07'0 0.0
2017-Dec-28 06:22N 34°23' W 120°07'0 0.0
2017-Dec-28 05:55N 34°23' W 120°07'0 0.0
2017-Dec-28 04:25N 34°23' W 120°07'0 0.0
2017-Dec-28 03:40N 34°23' W 120°07'0 0.1
2017-Dec-28 03:28N 34°23' W 120°07'0 0.0
2017-Dec-28 02:58N 34°23' W 120°07'0 0.1
2017-Dec-28 02:28N 34°23' W 120°07'0 0.0
2017-Dec-28 01:55N 34°23' W 120°07'0 0.0
2017-Dec-28 01:28N 34°23' W 120°07'0 0.0
2017-Dec-28 00:55N 34°23' W 120°07'0 0.0
2017-Dec-28 00:28N 34°23' W 120°07'0 0.0
2017-Dec-27 23:58N 34°23' W 120°07'0 0.0
2017-Dec-27 23:28N 34°23' W 120°07'0 0.0
2017-Dec-27 22:58N 34°23' W 120°07'0 0.4
2017-Dec-27 22:30N 34°23' W 120°07'813.5
2017-Dec-27 21:54N 34°24' W 119°57'2 4.1
2017-Dec-27 21:18N 34°23' W 120°00'515.1
2017-Dec-27 20:59N 34°23' W 120°06'814.6
2017-Dec-27 20:25N 34°21' W 120°16'1 1.5
2017-Dec-27 19:54N 34°21' W 120°17'613.5
2017-Dec-27 19:29N 34°23' W 120°10'3 4.0
2017-Dec-27 18:47N 34°23' W 120°07'0 0.1
2017-Dec-27 18:30N 34°23' W 120°07'814.1
2017-Dec-27 17:57N 34°24' W 119°58'0 0.4
2017-Dec-27 17:27N 34°24' W 119°58'714.8
2017-Dec-27 17:00N 34°24' W 120°06'1 2.3
2017-Dec-27 16:22N 34°23' W 120°07'512.7
2017-Dec-27 15:57N 34°24' W 120°01'5 8.9
2017-Dec-27 15:24N 34°26' W 119°55'0 0.0
2017-Dec-27 14:57N 34°26' W 119°55'0 0.5
2017-Dec-27 14:28N 34°26' W 119°55'0 0.4
2017-Dec-27 13:56N 34°26' W 119°55'2 5.8
2017-Dec-27 13:30N 34°25' W 119°58'713.7
2017-Dec-27 12:58N 34°24' W 120°07'0 0.7
2017-Dec-27 12:30N 34°23' W 120°07'0 0.0
2017-Dec-27 11:47N 34°23' W 120°07'0 0.0
2017-Dec-27 11:23N 34°23' W 120°07'0 0.0
2017-Dec-27 10:56N 34°23' W 120°07'0 0.0
2017-Dec-27 10:11N 34°23' W 120°07'0 0.0
2017-Dec-27 10:00N 34°23' W 120°07'0 0.0
2017-Dec-27 09:29N 34°23' W 120°07'0 0.0
2017-Dec-27 08:59N 34°23' W 120°07'0 0.0
2017-Dec-27 08:23N 34°23' W 120°07'0 0.0
2017-Dec-27 07:59N 34°23' W 120°07'0 0.0
2017-Dec-27 07:26N 34°23' W 120°07'0 0.0
2017-Dec-27 07:00N 34°23' W 120°07'0 0.0
2017-Dec-27 06:26N 34°23' W 120°07'0 0.0
2017-Dec-27 05:50N 34°23' W 120°07'0 0.0
2017-Dec-27 05:30N 34°23' W 120°07'0 0.0
2017-Dec-27 05:00N 34°23' W 120°07'0 0.0
2017-Dec-27 04:18N 34°23' W 120°07'0 0.0
2017-Dec-27 03:52N 34°23' W 120°07'0 0.0
2017-Dec-27 03:21N 34°23' W 120°07'0 0.0
2017-Dec-27 02:38N 34°23' W 120°07'0 0.0
2017-Dec-27 02:11N 34°23' W 120°07'0 0.1
2017-Dec-27 02:00N 34°23' W 120°07'5 9.2
2017-Dec-27 01:30N 34°24' W 120°01'510.6
2017-Dec-27 01:00N 34°26' W 119°55'611.8
2017-Dec-27 00:30N 34°24' W 120°02'4 8.2
2017-Dec-26 23:59N 34°23' W 120°07'0 0.2
2017-Dec-26 23:10N 34°23' W 120°07'0 0.1
2017-Dec-26 22:55N 34°23' W 120°07'0 0.0
2017-Dec-26 22:25N 34°23' W 120°07'0 0.1
2017-Dec-26 21:19N 34°23' W 120°07'0 0.0
2017-Dec-26 20:59N 34°23' W 120°07'0 0.3
2017-Dec-26 20:29N 34°23' W 120°07'612.6
2017-Dec-26 19:58N 34°24' W 119°60'4 7.8
2017-Dec-26 19:29N 34°26' W 119°55'0 0.0
2017-Dec-26 18:59N 34°26' W 119°55'0 0.0
2017-Dec-26 18:17N 34°26' W 119°55'0 0.0
2017-Dec-26 17:59N 34°26' W 119°55'0 0.2
2017-Dec-26 17:30N 34°26' W 119°55'510.9
2017-Dec-26 17:00N 34°23' W 120°01'510.8
2017-Dec-26 16:30N 34°23' W 120°08'2 3.7
2017-Dec-26 16:00N 34°22' W 120°10'2 3.1
2017-Dec-26 15:24N 34°23' W 120°08'614.3
2017-Dec-26 15:00N 34°24' W 120°01'5 6.5
2017-Dec-26 14:15N 34°26' W 119°55'0 0.0
2017-Dec-26 13:50N 34°26' W 119°55'0 0.5
2017-Dec-26 13:23N 34°26' W 119°55'0 0.4
2017-Dec-26 12:51N 34°26' W 119°55'0 0.0
2017-Dec-26 12:15N 34°26' W 119°55'0 0.0
2017-Dec-26 11:57N 34°26' W 119°55'0 0.0
2017-Dec-26 11:27N 34°26' W 119°55'0 0.0
2017-Dec-26 10:57N 34°26' W 119°55'0 0.0
2017-Dec-26 09:33N 34°26' W 119°55'0 0.0
2017-Dec-26 09:24N 34°26' W 119°55'0 0.0
2017-Dec-26 09:00N 34°26' W 119°55'0 0.0
2017-Dec-26 08:30N 34°26' W 119°55'0 0.0
2017-Dec-26 07:03N 34°26' W 119°55'0 0.0
2017-Dec-26 06:39N 34°26' W 119°55'0 0.0
2017-Dec-26 06:30N 34°26' W 119°55'0 0.0
2017-Dec-26 05:57N 34°26' W 119°55'0 0.0
2017-Dec-26 04:33N 34°26' W 119°55'0 0.0
2017-Dec-26 04:30N 34°26' W 119°55'0 0.0
2017-Dec-26 03:21N 34°26' W 119°55'0 0.0
2017-Dec-26 02:57N 34°26' W 119°55'0 0.0
2017-Dec-26 02:21N 34°26' W 119°55'0 0.0
2017-Dec-26 02:00N 34°26' W 119°55'4 8.8
2017-Dec-26 01:30N 34°24' W 120°00'611.4
2017-Dec-26 00:59N 34°23' W 120°07'0 0.3
2017-Dec-26 00:21N 34°23' W 120°07'0 0.0
2017-Dec-25 23:57N 34°23' W 120°07'0 0.0
2017-Dec-25 23:30N 34°23' W 120°07'0 0.0
2017-Dec-25 23:00N 34°23' W 120°07'0 0.0
2017-Dec-25 22:24N 34°23' W 120°07'0 0.1
2017-Dec-25 21:51N 34°23' W 120°07'0 0.1
2017-Dec-25 21:27N 34°23' W 120°07'0 0.1
2017-Dec-25 21:00N 34°23' W 120°07'0 0.0
2017-Dec-25 20:30N 34°23' W 120°07'0 0.0
2017-Dec-25 20:00N 34°23' W 120°07'0 0.0
2017-Dec-25 19:30N 34°23' W 120°07'0 0.0
2017-Dec-25 18:57N 34°23' W 120°07'5 9.6
2017-Dec-25 18:29N 34°22' W 120°12'1 2.5
2017-Dec-25 18:00N 34°22' W 120°14'610.9
2017-Dec-25 17:29N 34°23' W 120°07'0 0.0
2017-Dec-25 16:59N 34°23' W 120°07'0 0.0
2017-Dec-25 16:29N 34°23' W 120°07'0 0.0
2017-Dec-25 15:56N 34°23' W 120°07'0 0.0
2017-Dec-25 15:28N 34°23' W 120°07'0 0.0
2017-Dec-25 14:48N 34°23' W 120°07'0 0.1
2017-Dec-25 14:24N 34°23' W 120°07'0 0.0
2017-Dec-25 14:00N 34°23' W 120°07'0 0.0
2017-Dec-25 13:27N 34°23' W 120°07'0 0.0
2017-Dec-25 13:00N 34°23' W 120°07'0 0.0
2017-Dec-25 12:27N 34°23' W 120°07'0 0.0
2017-Dec-25 11:51N 34°23' W 120°07'0 0.0
2017-Dec-25 11:30N 34°23' W 120°07'0 0.1
2017-Dec-25 11:00N 34°23' W 120°07'0 0.0
2017-Dec-25 10:27N 34°23' W 120°07'0 0.0
2017-Dec-25 10:00N 34°23' W 120°07'0 0.0
2017-Dec-25 09:27N 34°23' W 120°07'0 0.0
2017-Dec-25 08:57N 34°23' W 120°07'0 0.0
2017-Dec-25 08:30N 34°23' W 120°07'0 0.0
2017-Dec-25 05:43N 34°23' W 120°07'0 0.0
2017-Dec-24 19:42N 34°23' W 120°07'313.0
2017-Dec-24 19:27N 34°24' W 120°03'713.7
2017-Dec-24 18:58N 34°26' W 119°55'10 1.5
2017-Dec-24 12:20N 34°23' W 120°07'0 0.0
2017-Dec-24 11:59N 34°23' W 120°07'0 0.1
2017-Dec-24 11:26N 34°23' W 120°07'0 0.0
2017-Dec-24 10:59N 34°23' W 120°07'0 0.0
2017-Dec-24 10:20N 34°23' W 120°07'0 0.0
2017-Dec-24 09:56N 34°23' W 120°07'0 0.0
2017-Dec-24 09:23N 34°23' W 120°07'0 0.0
2017-Dec-24 08:57N 34°23' W 120°07'0 0.0
2017-Dec-24 08:27N 34°23' W 120°07'0 0.0
2017-Dec-24 08:00N 34°23' W 120°07'0 0.0
2017-Dec-24 07:30N 34°23' W 120°07'0 0.0
2017-Dec-24 06:58N 34°23' W 120°07'0 0.0
2017-Dec-24 06:22N 34°23' W 120°07'0 0.0
2017-Dec-24 05:59N 34°23' W 120°07'0 0.0
2017-Dec-24 05:23N 34°23' W 120°07'0 0.0
2017-Dec-24 04:59N 34°23' W 120°07'0 0.0
2017-Dec-24 04:30N 34°23' W 120°07'0 0.0
2017-Dec-24 04:00N 34°23' W 120°07'0 0.1
2017-Dec-24 03:27N 34°23' W 120°07'0 0.0
2017-Dec-24 02:50N 34°23' W 120°07'0 0.1
2017-Dec-24 02:29N 34°23' W 120°07'2 4.2
2017-Dec-24 01:59N 34°23' W 120°10'0 0.9
2017-Dec-24 01:29N 34°22' W 120°10'2 4.6
2017-Dec-24 01:00N 34°23' W 120°07'2 3.9
2017-Dec-24 00:25N 34°23' W 120°10'0 0.1
2017-Dec-23 23:51N 34°22' W 120°10'0 0.0
2017-Dec-23 23:29N 34°22' W 120°10'0 0.1
2017-Dec-23 22:58N 34°22' W 120°10'0 0.0
2017-Dec-23 22:13N 34°22' W 120°10'0 0.0
2017-Dec-23 21:57N 34°22' W 120°10'0 0.1
2017-Dec-23 21:16N 34°23' W 120°10'0 0.0
2017-Dec-23 20:13N 34°23' W 120°10'0 0.0
2017-Dec-23 19:52N 34°22' W 120°10'0 0.0
2017-Dec-23 19:10N 34°23' W 120°10'0 0.0
2017-Dec-23 18:40N 34°22' W 120°10'0 0.0
2017-Dec-23 18:28N 34°22' W 120°10'0 0.0
2017-Dec-23 17:52N 34°22' W 120°10'0 0.0
2017-Dec-23 17:25N 34°22' W 120°10'0 0.0
2017-Dec-23 16:55N 34°22' W 120°10'0 0.0
2017-Dec-23 16:30N 34°22' W 120°10'612.9
2017-Dec-23 16:00N 34°26' W 120°03'611.0
2017-Dec-23 15:30N 34°24' W 119°57'2 3.5
2017-Dec-23 14:52N 34°26' W 119°55'0 0.0
2017-Dec-23 12:19N 34°26' W 119°55'0 0.0
2017-Dec-23 10:07N 34°26' W 119°55'0 0.1
2017-Dec-23 09:37N 34°26' W 119°55'0 0.0
2017-Dec-23 07:55N 34°26' W 119°55'0 0.0
2017-Dec-23 04:28N 34°26' W 119°55'0 0.0
2017-Dec-23 02:25N 34°26' W 119°55'0 0.6
2017-Dec-23 01:57N 34°26' W 119°56'913.9
2017-Dec-23 01:17N 34°24' W 120°07'1 4.4
2017-Dec-23 01:00N 34°23' W 120°08'712.7
2017-Dec-23 00:26N 34°21' W 120°17'6 5.2
2017-Dec-22 23:20N 34°23' W 120°10'0 0.0
2017-Dec-22 22:56N 34°23' W 120°10'0 0.0
2017-Dec-22 21:50N 34°23' W 120°10'0 0.0
2017-Dec-22 21:26N 34°23' W 120°10'0 0.0
2017-Dec-22 20:32N 34°22' W 120°10'0 0.0
2017-Dec-22 20:23N 34°22' W 120°10'0 0.0
2017-Dec-22 19:56N 34°22' W 120°10'0 0.0
2017-Dec-22 19:14N 34°22' W 120°10'0 0.0
2017-Dec-22 17:45N 34°22' W 120°10'2 9.6
2017-Dec-22 17:30N 34°23' W 120°07'0 0.8
2017-Dec-22 16:59N 34°23' W 120°08'6 9.6
2017-Dec-22 16:23N 34°21' W 120°14'2 5.1
2017-Dec-22 15:59N 34°21' W 120°17'6 9.5
2017-Dec-22 15:23N 34°23' W 120°10'2 4.6
2017-Dec-22 15:00N 34°23' W 120°08'1 1.6
2017-Dec-22 14:24N 34°23' W 120°07'0 0.0
2017-Dec-22 13:54N 34°23' W 120°07'0 0.0
2017-Dec-22 13:27N 34°23' W 120°07'0 0.0
2017-Dec-22 13:00N 34°23' W 120°07'0 0.1
2017-Dec-22 12:24N 34°23' W 120°07'0 0.0
2017-Dec-22 11:58N 34°23' W 120°07'0 0.0
2017-Dec-22 11:28N 34°23' W 120°07'0 0.0
2017-Dec-22 10:58N 34°23' W 120°07'0 0.1
2017-Dec-22 10:28N 34°23' W 120°07'0 0.0
2017-Dec-22 09:55N 34°23' W 120°07'0 0.0
2017-Dec-22 09:28N 34°23' W 120°07'0 0.1
2017-Dec-22 08:58N 34°23' W 120°07'0 0.1
2017-Dec-22 08:28N 34°23' W 120°07'0 0.0
2017-Dec-22 07:58N 34°23' W 120°07'0 0.0
2017-Dec-22 06:28N 34°23' W 120°07'0 0.1
2017-Dec-22 05:58N 34°23' W 120°07'0 0.1
2017-Dec-22 05:10N 34°23' W 120°07'0 0.2
2017-Dec-22 04:58N 34°23' W 120°07'0 0.0
2017-Dec-22 04:28N 34°23' W 120°07'0 0.0
2017-Dec-22 03:58N 34°23' W 120°07'0 0.1
2017-Dec-22 03:28N 34°23' W 120°07'0 0.1
2017-Dec-22 02:52N 34°23' W 120°07'0 0.0
2017-Dec-22 02:28N 34°23' W 120°07'0 0.0
2017-Dec-22 01:59N 34°23' W 120°07'0 0.0
2017-Dec-22 01:30N 34°23' W 120°07'0 0.0
2017-Dec-22 01:00N 34°23' W 120°07'10 7.2
2017-Dec-21 23:37N 34°26' W 119°55'0 0.0
2017-Dec-21 23:22N 34°26' W 119°55'0 0.0
2017-Dec-21 22:56N 34°26' W 119°55'0 0.0
2017-Dec-21 21:45N 34°26' W 119°55'0 0.0
2017-Dec-21 21:12N 34°26' W 119°55'  

Dump ship's entire track history